createdAt,value
2022-09-22T00:00:42.128Z,80.55
2022-09-22T00:03:14.575Z,79.69
2022-09-22T00:05:47.681Z,79.56
2022-09-22T00:08:19.906Z,80.22
2022-09-22T00:10:59.701Z,80.23
2022-09-22T00:13:32.201Z,80.18
2022-09-22T00:16:08.516Z,79.61
2022-09-22T00:18:41.262Z,79.86
2022-09-22T00:21:16.366Z,79.84
2022-09-22T00:23:49.550Z,79.81
2022-09-22T00:26:23.764Z,80.27
2022-09-22T00:28:56.083Z,79.43
2022-09-22T00:31:29.799Z,79.84
2022-09-22T00:34:02.413Z,80.30
2022-09-22T00:36:35.388Z,80.52
2022-09-22T00:39:07.691Z,80.32
2022-09-22T00:41:43.437Z,81.05
2022-09-22T00:44:31.914Z,81.27
2022-09-22T00:47:15.482Z,82.03
2022-09-22T00:49:53.484Z,81.94
2022-09-22T00:52:31.866Z,81.66
2022-09-22T00:55:10.628Z,81.67
2022-09-22T00:57:44.679Z,81.85
2022-09-22T01:00:17.777Z,81.84
2022-09-22T01:02:54.604Z,81.39
2022-09-22T01:05:29.653Z,81.01
2022-09-22T01:08:03.175Z,81.80
2022-09-22T01:10:35.525Z,81.64
2022-09-22T01:13:19.937Z,81.84
2022-09-22T01:16:03.699Z,81.25
2022-09-22T01:18:49.106Z,81.99
2022-09-22T01:21:36.699Z,81.41
2022-09-22T01:24:36.686Z,81.95
2022-09-22T01:27:31.217Z,82.29
2022-09-22T01:30:29.818Z,81.55
2022-09-22T01:33:22.294Z,81.55
2022-09-22T01:36:11.486Z,81.46
2022-09-22T01:38:55.357Z,81.56
2022-09-22T01:41:41.851Z,81.92
2022-09-22T01:44:20.782Z,81.71
2022-09-22T01:46:57.529Z,81.72
2022-09-22T01:49:34.923Z,81.84
2022-09-22T01:52:12.774Z,80.54
2022-09-22T01:54:52.439Z,81.15
2022-09-22T01:57:37.295Z,81.81
2022-09-22T02:00:10.915Z,81.45
2022-09-22T02:02:54.152Z,81.58
2022-09-22T02:05:32.381Z,81.92
2022-09-22T02:08:11.287Z,81.74
2022-09-22T02:10:47.321Z,81.81
2022-09-22T02:13:19.819Z,81.52
2022-09-22T02:16:01.276Z,81.58
2022-09-22T02:18:42.978Z,81.28
2022-09-22T02:21:15.570Z,81.74
2022-09-22T02:23:49.292Z,82.24
2022-09-22T02:26:25.629Z,82.43
2022-09-22T02:29:02.310Z,81.89
2022-09-22T02:31:37.790Z,82.29
2022-09-22T02:34:11.816Z,82.41
2022-09-22T02:36:54.570Z,82.24
2022-09-22T02:39:33.721Z,82.75
2022-09-22T02:42:20.587Z,82.79
2022-09-22T02:44:59.830Z,82.96
2022-09-22T02:47:36.724Z,83.87
2022-09-22T02:50:12.676Z,84.25
2022-09-22T02:52:45.070Z,84.18
2022-09-22T02:55:17.573Z,84.86
2022-09-22T02:57:49.892Z,85.18
2022-09-22T03:00:22.399Z,85.53
2022-09-22T03:02:54.691Z,86.40
2022-09-22T03:05:27.693Z,85.93
2022-09-22T03:08:00.182Z,86.04
2022-09-22T03:10:33.069Z,87.69
2022-09-22T03:13:20.735Z,88.77
2022-09-22T03:15:53.128Z,89.39
2022-09-22T03:18:25.496Z,89.38
2022-09-22T03:20:58.526Z,87.64
2022-09-22T03:23:30.792Z,87.39
2022-09-22T03:26:03.298Z,86.62
2022-09-22T03:28:35.594Z,86.50
2022-09-22T03:31:07.961Z,86.86
2022-09-22T03:33:40.421Z,86.67
2022-09-22T03:36:13.516Z,87.08
2022-09-22T03:38:45.909Z,86.90
2022-09-22T03:41:18.604Z,87.10
2022-09-22T03:43:51.122Z,86.75
2022-09-22T03:46:24.283Z,87.41
2022-09-22T03:48:56.756Z,87.50
2022-09-22T03:51:29.802Z,87.31
2022-09-22T03:54:02.232Z,87.86
2022-09-22T03:56:34.679Z,87.84
2022-09-22T03:59:07.138Z,88.03
2022-09-22T04:01:39.543Z,88.34
2022-09-22T04:04:11.846Z,88.00
2022-09-22T04:06:44.827Z,87.98
2022-09-22T04:09:17.783Z,87.55
2022-09-22T04:11:50.201Z,86.82
2022-09-22T04:14:22.495Z,86.15
2022-09-22T04:16:54.921Z,86.54
2022-09-22T04:19:28.086Z,86.48
2022-09-22T04:22:01.436Z,86.59
2022-09-22T04:24:33.701Z,86.74
2022-09-22T04:27:19.518Z,85.91
2022-09-22T04:29:52.590Z,86.21
2022-09-22T04:32:24.891Z,86.83
2022-09-22T04:34:57.303Z,86.71
2022-09-22T04:37:30.293Z,86.99
2022-09-22T04:40:02.996Z,87.43
2022-09-22T04:42:35.339Z,87.33
2022-09-22T04:45:08.687Z,87.34
2022-09-22T04:47:41.121Z,87.68
2022-09-22T04:50:14.174Z,87.57
2022-09-22T04:52:48.287Z,87.41
2022-09-22T04:55:22.362Z,87.46
2022-09-22T04:57:56.154Z,87.62
2022-09-22T05:00:29.666Z,87.63
2022-09-22T05:03:08.333Z,87.44
2022-09-22T05:05:41.059Z,87.63
2022-09-22T05:08:14.477Z,87.05
2022-09-22T05:10:46.960Z,87.36
2022-09-22T05:13:19.258Z,86.62
2022-09-22T05:15:51.554Z,87.16
2022-09-22T05:18:23.973Z,87.03
2022-09-22T05:20:56.807Z,86.99
2022-09-22T05:23:31.522Z,86.81
2022-09-22T05:26:03.945Z,85.21
2022-09-22T05:28:36.634Z,82.58
2022-09-22T05:31:09.020Z,82.58
2022-09-22T05:33:41.392Z,81.88
2022-09-22T05:36:13.833Z,81.10
2022-09-22T05:38:46.841Z,80.70
2022-09-22T05:41:19.123Z,80.69
2022-09-22T05:43:51.591Z,80.86
2022-09-22T05:46:23.931Z,79.46
2022-09-22T05:48:56.208Z,79.25
2022-09-22T05:51:28.608Z,79.20
2022-09-22T05:54:02.083Z,78.68
2022-09-22T05:56:34.385Z,78.16
2022-09-22T05:59:06.731Z,77.25
2022-09-22T06:01:39.028Z,77.50
2022-09-22T06:04:11.876Z,77.72
2022-09-22T06:06:44.201Z,77.29
2022-09-22T06:09:17.231Z,77.41
2022-09-22T06:11:49.516Z,76.36
2022-09-22T06:14:21.841Z,74.79
2022-09-22T06:16:55.119Z,75.18
2022-09-22T06:19:28.892Z,74.89
2022-09-22T06:22:02.322Z,75.29
2022-09-22T06:24:35.231Z,74.34
2022-09-22T06:27:07.542Z,74.88
2022-09-22T06:29:40.944Z,74.65
2022-09-22T06:32:13.287Z,75.90
2022-09-22T06:34:46.210Z,74.95
2022-09-22T06:37:19.651Z,73.69
2022-09-22T06:39:52.566Z,73.62
2022-09-22T06:42:24.898Z,73.39
2022-09-22T06:44:57.345Z,73.94
2022-09-22T06:47:30.939Z,72.11
2022-09-22T06:50:05.102Z,72.79
2022-09-22T06:52:38.450Z,73.38
2022-09-22T06:55:20.006Z,73.82
2022-09-22T06:57:52.499Z,73.26
2022-09-22T07:00:32.002Z,73.62
2022-09-22T07:03:06.518Z,72.72
2022-09-22T07:05:38.859Z,71.57
2022-09-22T07:08:11.155Z,70.51
2022-09-22T07:10:44.778Z,70.08
2022-09-22T07:13:17.742Z,69.79
2022-09-22T07:15:50.462Z,68.95
2022-09-22T07:18:22.793Z,69.76
2022-09-22T07:21:01.519Z,70.92
2022-09-22T07:23:35.919Z,71.68
2022-09-22T07:26:12.341Z,72.63
2022-09-22T07:28:46.238Z,73.54
2022-09-22T07:31:18.775Z,73.66
2022-09-22T07:33:52.846Z,72.76
2022-09-22T07:36:26.787Z,71.31
2022-09-22T07:39:05.882Z,71.99
2022-09-22T07:41:42.264Z,71.75
2022-09-22T07:44:33.431Z,71.49
2022-09-22T07:47:05.796Z,70.80
2022-09-22T07:49:38.110Z,71.45
2022-09-22T07:52:10.441Z,71.33
2022-09-22T07:54:42.779Z,71.54
2022-09-22T07:57:15.749Z,71.09
2022-09-22T07:59:48.050Z,69.24
2022-09-22T08:02:24.831Z,68.01
2022-09-22T08:05:02.111Z,65.67
2022-09-22T08:07:35.625Z,64.41
2022-09-22T08:10:10.179Z,63.64
2022-09-22T08:12:43.932Z,60.22
2022-09-22T08:15:16.325Z,59.67
2022-09-22T08:17:48.987Z,59.72
2022-09-22T08:20:21.267Z,59.91
2022-09-22T08:22:53.678Z,58.42
2022-09-22T08:25:26.021Z,58.06
2022-09-22T08:28:01.344Z,59.83
2022-09-22T08:30:35.705Z,57.06
2022-09-22T08:33:08.169Z,58.15
2022-09-22T08:35:51.003Z,58.06
2022-09-22T08:38:23.486Z,58.32
2022-09-22T08:41:18.690Z,57.75
2022-09-22T08:43:54.723Z,55.54
2022-09-22T08:46:30.724Z,54.61
2022-09-22T08:49:30.226Z,53.60
2022-09-22T08:52:09.174Z,53.59
2022-09-22T08:54:42.720Z,52.46
2022-09-22T08:57:48.860Z,51.64
2022-09-22T09:00:23.493Z,51.75
2022-09-22T09:03:13.299Z,53.64
2022-09-22T09:05:55.178Z,52.90
2022-09-22T09:09:11.487Z,51.21
2022-09-22T09:11:59.946Z,49.20
2022-09-22T09:15:07.723Z,48.40
2022-09-22T09:17:44.469Z,46.91
2022-09-22T09:20:19.319Z,46.68
2022-09-22T09:22:55.010Z,45.04
2022-09-22T09:25:35.046Z,46.52
2022-09-22T09:28:14.103Z,44.73
2022-09-22T09:30:50.448Z,45.13
2022-09-22T09:33:33.021Z,45.34
2022-09-22T09:36:13.886Z,45.08
2022-09-22T09:38:50.691Z,44.49
2022-09-22T09:41:30.586Z,43.84
2022-09-22T09:44:04.827Z,41.50
2022-09-22T09:46:48.993Z,42.50
2022-09-22T09:49:23.756Z,43.01
2022-09-22T09:51:58.133Z,41.38
2022-09-22T09:54:30.457Z,41.38
2022-09-22T09:57:09.102Z,40.75
2022-09-22T10:00:01.491Z,41.03
2022-09-22T10:02:49.607Z,40.34
2022-09-22T10:05:26.062Z,40.33
2022-09-22T10:08:01.160Z,40.37
2022-09-22T10:10:35.937Z,40.58
2022-09-22T10:13:24.906Z,40.03
2022-09-22T10:16:29.994Z,40.23
2022-09-22T10:19:17.494Z,39.76
2022-09-22T10:21:50.544Z,41.53
2022-09-22T10:24:29.183Z,40.75
2022-09-22T10:27:03.960Z,40.92
2022-09-22T10:29:41.521Z,41.29
2022-09-22T10:32:15.682Z,41.02
2022-09-22T10:34:50.033Z,41.15
2022-09-22T10:37:27.759Z,41.64
2022-09-22T10:40:03.014Z,42.67
2022-09-22T10:42:39.576Z,42.62
2022-09-22T10:45:13.700Z,42.72
2022-09-22T10:47:56.453Z,41.77
2022-09-22T10:50:50.582Z,42.37
2022-09-22T10:53:38.803Z,40.51
2022-09-22T10:56:18.002Z,40.16
2022-09-22T10:59:28.455Z,41.54
2022-09-22T11:02:30.198Z,39.97
2022-09-22T11:05:41.702Z,39.43
2022-09-22T11:08:36.242Z,39.53
2022-09-22T11:11:37.367Z,40.23
2022-09-22T11:14:28.321Z,40.08
2022-09-22T11:17:17.074Z,39.42
2022-09-22T11:20:22.275Z,40.77
2022-09-22T11:23:24.072Z,39.47
2022-09-22T11:26:16.096Z,39.50
2022-09-22T11:28:59.991Z,38.27
2022-09-22T11:31:42.443Z,38.24
2022-09-22T11:34:39.750Z,37.99
2022-09-22T11:37:27.319Z,39.02
2022-09-22T11:40:24.679Z,38.99
2022-09-22T11:43:15.417Z,40.14
2022-09-22T11:45:50.803Z,40.33
2022-09-22T11:48:32.618Z,39.13
2022-09-22T11:51:23.447Z,40.68
2022-09-22T11:54:30.023Z,39.70
2022-09-22T11:57:07.107Z,36.99
2022-09-22T11:59:43.862Z,37.54
2022-09-22T12:02:21.009Z,37.08
2022-09-22T12:04:59.409Z,40.29
2022-09-22T12:07:39.308Z,42.92
2022-09-22T12:10:17.013Z,43.10
2022-09-22T12:12:51.134Z,43.05
2022-09-22T12:15:30.890Z,43.08
2022-09-22T12:18:10.298Z,44.47
2022-09-22T12:20:54.764Z,44.58
2022-09-22T12:23:37.464Z,44.66
2022-09-22T12:26:11.774Z,44.70
2022-09-22T12:28:45.371Z,45.27
2022-09-22T12:31:20.496Z,45.12
2022-09-22T12:33:54.440Z,45.75
2022-09-22T12:36:32.098Z,46.31
2022-09-22T12:39:17.282Z,46.56
2022-09-22T12:41:57.810Z,46.23
2022-09-22T12:44:33.791Z,45.17
2022-09-22T12:47:19.312Z,44.97
2022-09-22T12:49:56.195Z,44.81
2022-09-22T12:53:02.677Z,44.81
2022-09-22T12:55:38.290Z,45.98
2022-09-22T12:58:43.537Z,46.02
2022-09-22T13:01:33.406Z,46.41
2022-09-22T13:04:16.270Z,46.68
2022-09-22T13:06:59.341Z,47.83
2022-09-22T13:09:31.990Z,48.44
2022-09-22T13:12:29.609Z,48.22
2022-09-22T13:15:23.327Z,47.88
2022-09-22T13:17:56.422Z,47.84
2022-09-22T13:20:32.812Z,47.16
2022-09-22T13:23:06.503Z,46.98
2022-09-22T13:25:40.359Z,47.61
2022-09-22T13:28:15.098Z,47.43
2022-09-22T13:31:01.156Z,47.05
2022-09-22T13:33:36.537Z,46.73
2022-09-22T13:36:13.219Z,46.71
2022-09-22T13:38:50.286Z,46.88
2022-09-22T13:41:24.932Z,47.14
2022-09-22T13:44:01.976Z,46.39
2022-09-22T13:46:39.577Z,46.85
2022-09-22T13:49:16.243Z,46.06
2022-09-22T13:51:55.435Z,46.35
2022-09-22T13:54:32.098Z,47.01
2022-09-22T13:57:07.491Z,46.85
2022-09-22T13:59:41.613Z,47.75
2022-09-22T14:02:14.034Z,48.11
2022-09-22T14:04:50.678Z,47.70
2022-09-22T14:07:27.353Z,48.44
2022-09-22T14:10:02.085Z,49.57
2022-09-22T14:12:34.623Z,49.85
2022-09-22T14:15:38.971Z,50.62
2022-09-22T14:18:17.454Z,51.30
2022-09-22T14:20:52.304Z,51.71
2022-09-22T14:23:29.871Z,52.28
2022-09-22T14:26:18.176Z,52.95
2022-09-22T14:28:51.774Z,52.84
2022-09-22T14:31:28.638Z,53.59
2022-09-22T14:34:02.701Z,53.79
2022-09-22T14:36:36.515Z,52.62
2022-09-22T14:39:18.258Z,53.26
2022-09-22T14:41:58.263Z,53.44
2022-09-22T14:44:45.433Z,53.08
2022-09-22T14:47:29.190Z,52.81
2022-09-22T14:50:18.119Z,53.09
2022-09-22T14:52:57.370Z,52.97
2022-09-22T14:55:35.126Z,51.83
2022-09-22T14:58:16.872Z,52.55
2022-09-22T15:01:09.738Z,51.79
2022-09-22T15:03:46.005Z,52.00
2022-09-22T15:06:18.621Z,52.00
2022-09-22T15:08:52.248Z,50.85
2022-09-22T15:11:47.567Z,50.59
2022-09-22T15:14:24.257Z,50.09
2022-09-22T15:17:16.736Z,50.06
2022-09-22T15:19:50.370Z,51.20
2022-09-22T15:22:23.435Z,51.35
2022-09-22T15:24:57.447Z,50.56
2022-09-22T15:27:30.842Z,51.30
2022-09-22T15:30:03.630Z,50.33
2022-09-22T15:32:36.006Z,51.25
2022-09-22T15:35:09.209Z,50.38
2022-09-22T15:37:44.254Z,48.75
2022-09-22T15:40:18.640Z,49.09
2022-09-22T15:43:11.782Z,50.69
2022-09-22T15:45:47.908Z,51.31
2022-09-22T15:48:25.689Z,50.90
2022-09-22T15:51:00.356Z,51.14
2022-09-22T15:53:34.208Z,51.46
2022-09-22T15:56:12.254Z,51.36
2022-09-22T15:58:45.725Z,50.36
2022-09-22T16:01:18.158Z,51.62
2022-09-22T16:03:51.573Z,51.88
2022-09-22T16:06:24.019Z,52.20
2022-09-22T16:08:57.820Z,52.41
2022-09-22T16:11:30.227Z,52.85
2022-09-22T16:14:03.579Z,53.59
2022-09-22T16:16:37.248Z,53.44
2022-09-22T16:19:09.810Z,53.34
2022-09-22T16:21:49.553Z,53.26
2022-09-22T16:24:21.903Z,53.02
2022-09-22T16:26:55.033Z,53.36
2022-09-22T16:29:28.034Z,53.38
2022-09-22T16:32:00.535Z,53.71
2022-09-22T16:34:34.164Z,53.87
2022-09-22T16:37:06.482Z,54.04
2022-09-22T16:39:38.857Z,54.60
2022-09-22T16:42:11.262Z,55.07
2022-09-22T16:44:45.284Z,54.53
2022-09-22T16:47:22.038Z,54.28
2022-09-22T16:49:54.942Z,55.19
2022-09-22T16:52:31.306Z,55.04
2022-09-22T16:55:06.059Z,55.13
2022-09-22T16:57:38.411Z,55.56
2022-09-22T17:00:13.045Z,56.94
2022-09-22T17:02:46.057Z,55.99
2022-09-22T17:05:18.393Z,57.40
2022-09-22T17:07:50.788Z,56.16
2022-09-22T17:10:23.210Z,57.48
2022-09-22T17:12:55.683Z,58.06
2022-09-22T17:15:28.704Z,57.80
2022-09-22T17:18:01.701Z,57.39
2022-09-22T17:20:34.008Z,57.10
2022-09-22T17:23:07.260Z,57.06
2022-09-22T17:25:39.587Z,57.45
2022-09-22T17:28:12.216Z,57.41
2022-09-22T17:30:55.771Z,57.71
2022-09-22T17:33:28.770Z,58.10
2022-09-22T17:36:02.787Z,58.58
2022-09-22T17:38:37.533Z,59.30
2022-09-22T17:41:10.123Z,59.25
2022-09-22T17:43:42.711Z,59.86
2022-09-22T17:46:16.771Z,59.20
2022-09-22T17:49:07.129Z,60.86
2022-09-22T17:51:59.263Z,60.77
2022-09-22T17:54:51.812Z,61.50
2022-09-22T17:57:26.182Z,62.03
2022-09-22T17:59:59.215Z,62.25
2022-09-22T18:02:35.895Z,62.78
2022-09-22T18:05:10.821Z,63.14
2022-09-22T18:07:43.530Z,63.28
2022-09-22T18:10:17.143Z,64.89
2022-09-22T18:12:49.576Z,65.14
2022-09-22T18:15:22.137Z,65.18
2022-09-22T18:17:57.182Z,65.80
2022-09-22T18:20:29.662Z,66.16
2022-09-22T18:23:01.959Z,67.29
2022-09-22T18:25:34.390Z,67.71
2022-09-22T18:28:06.709Z,67.91
2022-09-22T18:30:39.896Z,68.60
2022-09-22T18:33:13.554Z,68.97
2022-09-22T18:35:46.738Z,68.92
2022-09-22T18:38:19.095Z,69.25
2022-09-22T18:40:51.441Z,69.78
2022-09-22T18:43:23.876Z,69.57
2022-09-22T18:45:56.744Z,70.83
2022-09-22T18:48:29.704Z,70.95
2022-09-22T18:51:05.742Z,71.08
2022-09-22T18:53:38.650Z,71.46
2022-09-22T18:56:15.575Z,71.12
2022-09-22T18:58:47.892Z,70.99
2022-09-22T19:01:21.986Z,71.85
2022-09-22T19:03:55.022Z,71.91
2022-09-22T19:06:27.532Z,72.50
2022-09-22T19:08:59.813Z,72.29
2022-09-22T19:11:34.290Z,72.89
2022-09-22T19:14:07.898Z,72.64
2022-09-22T19:16:41.446Z,72.46
2022-09-22T19:19:14.777Z,72.49
2022-09-22T19:21:49.537Z,73.03
2022-09-22T19:24:22.673Z,72.97
2022-09-22T19:26:55.053Z,73.38
2022-09-22T19:29:27.667Z,74.01
2022-09-22T19:32:00.902Z,74.50
2022-09-22T19:34:34.023Z,75.53
2022-09-22T19:37:06.918Z,75.23
2022-09-22T19:39:39.302Z,75.79
2022-09-22T19:42:11.780Z,75.96
2022-09-22T19:44:44.155Z,77.17
2022-09-22T19:47:16.482Z,76.87
2022-09-22T19:49:49.510Z,76.73
2022-09-22T19:52:21.866Z,77.15
2022-09-22T19:54:54.194Z,77.65
2022-09-22T19:57:26.867Z,77.33
2022-09-22T19:59:59.176Z,77.22
2022-09-22T20:02:31.513Z,77.63
2022-09-22T20:05:09.191Z,78.17
2022-09-22T20:07:41.767Z,78.30
2022-09-22T20:10:14.308Z,78.50
2022-09-22T20:12:46.642Z,78.84
2022-09-22T20:15:19.807Z,78.83
2022-09-22T20:17:53.376Z,79.46
2022-09-22T20:20:28.000Z,80.06
2022-09-22T20:23:00.550Z,80.45
2022-09-22T20:25:33.218Z,80.50
2022-09-22T20:28:05.509Z,80.59
2022-09-22T20:30:37.936Z,80.96
2022-09-22T20:33:18.796Z,80.78
2022-09-22T20:35:54.695Z,80.25
2022-09-22T20:38:27.239Z,81.07
2022-09-22T20:41:00.991Z,80.31
2022-09-22T20:43:33.225Z,79.87
2022-09-22T20:46:06.330Z,80.67
2022-09-22T20:48:38.682Z,80.49
2022-09-22T20:51:11.939Z,80.30
2022-09-22T20:53:44.615Z,80.51
2022-09-22T20:56:17.241Z,80.09
2022-09-22T20:58:49.562Z,80.62
2022-09-22T21:01:22.038Z,80.03
2022-09-22T21:03:55.369Z,80.25
2022-09-22T21:06:30.161Z,81.23
2022-09-22T21:09:20.482Z,81.31
2022-09-22T21:11:53.853Z,81.30
2022-09-22T21:14:26.127Z,81.50
2022-09-22T21:16:58.406Z,82.68
2022-09-22T21:19:32.314Z,82.62
2022-09-22T21:22:05.472Z,82.39
2022-09-22T21:24:38.030Z,82.92
2022-09-22T21:27:10.282Z,82.86
2022-09-22T21:29:42.548Z,82.93
2022-09-22T21:32:14.891Z,82.95
2022-09-22T21:34:47.191Z,82.98
2022-09-22T21:37:20.339Z,83.15
2022-09-22T21:39:52.619Z,82.50
2022-09-22T21:42:24.962Z,82.10
2022-09-22T21:44:57.243Z,82.66
2022-09-22T21:47:29.572Z,82.66
2022-09-22T21:50:02.417Z,82.51
2022-09-22T21:52:37.701Z,82.71
2022-09-22T21:55:10.049Z,82.36
2022-09-22T21:57:42.394Z,82.41
2022-09-22T22:00:15.051Z,82.69
2022-09-22T22:03:05.197Z,83.00
2022-09-22T22:05:37.504Z,83.04
2022-09-22T22:08:10.478Z,83.40
2022-09-22T22:10:42.787Z,83.64
2022-09-22T22:13:20.524Z,84.24
2022-09-22T22:15:57.571Z,83.71
2022-09-22T22:18:30.232Z,83.90
2022-09-22T22:21:04.395Z,83.98
2022-09-22T22:23:39.333Z,83.71
2022-09-22T22:26:14.132Z,83.99
2022-09-22T22:28:47.839Z,83.75
2022-09-22T22:31:22.517Z,83.69
2022-09-22T22:33:56.004Z,84.20
2022-09-22T22:36:28.287Z,83.88
2022-09-22T22:39:01.282Z,84.04
2022-09-22T22:41:33.587Z,83.90
2022-09-22T22:44:06.440Z,84.52
2022-09-22T22:46:38.972Z,84.76
2022-09-22T22:49:11.874Z,84.35
2022-09-22T22:51:44.176Z,84.12
2022-09-22T22:54:17.110Z,84.10
2022-09-22T22:56:51.449Z,83.80
2022-09-22T22:59:26.910Z,84.12
2022-09-22T23:01:59.193Z,84.41
2022-09-22T23:04:32.319Z,84.23
2022-09-22T23:07:04.704Z,84.47
2022-09-22T23:09:37.702Z,84.60
2022-09-22T23:12:09.994Z,85.02
2022-09-22T23:14:42.290Z,85.93
2022-09-22T23:17:14.978Z,86.22
2022-09-22T23:19:49.065Z,86.55
2022-09-22T23:22:21.427Z,85.78
2022-09-22T23:24:54.415Z,85.43
2022-09-22T23:27:27.699Z,84.91
2022-09-22T23:30:00.019Z,85.10
2022-09-22T23:32:32.395Z,84.90
2022-09-22T23:35:05.967Z,85.29
2022-09-22T23:37:38.417Z,85.50
2022-09-22T23:40:11.527Z,85.08
2022-09-22T23:42:43.858Z,85.44
2022-09-22T23:45:16.478Z,84.94
2022-09-22T23:47:48.809Z,84.72
2022-09-22T23:50:22.674Z,85.41
2022-09-22T23:52:55.250Z,85.22
2022-09-22T23:55:28.334Z,85.66
2022-09-22T23:58:00.676Z,85.85
